sensor_id;sensor_type;location;lat;lon;timestamp;pressure;altitude;pressure_sealevel;temperature;humidity
63399;BME280;49533;-34.520;150.798;2023-03-18T00:00:16;100915.88;;;29.29;49.73
63399;BME280;49533;-34.520;150.798;2023-03-18T00:02:44;100870.66;;;29.11;49.86
63399;BME280;49533;-34.520;150.798;2023-03-18T00:05:13;100914.41;;;29.44;49.53
63399;BME280;49533;-34.520;150.798;2023-03-18T00:07:40;100924.25;;;29.53;49.76
63399;BME280;49533;-34.520;150.798;2023-03-18T00:10:09;100920.97;;;29.58;49.65
63399;BME280;49533;-34.520;150.798;2023-03-18T00:12:39;100854.16;;;29.16;49.73
63399;BME280;49533;-34.520;150.798;2023-03-18T00:15:09;100895.41;;;29.56;49.12
63399;BME280;49533;-34.520;150.798;2023-03-18T00:17:37;100903.56;;;29.70;49.04
63399;BME280;49533;-34.520;150.798;2023-03-18T00:20:07;100890.06;;;29.65;49.22
63399;BME280;49533;-34.520;150.798;2023-03-18T00:22:36;100836.97;;;29.38;49.41
63399;BME280;49533;-34.520;150.798;2023-03-18T00:25:06;100861.31;;;29.61;49.03
63399;BME280;49533;-34.520;150.798;2023-03-18T00:27:34;100858.25;;;29.75;48.63
63399;BME280;49533;-34.520;150.798;2023-03-18T00:30:02;100882.66;;;29.95;49.09
63399;BME280;49533;-34.520;150.798;2023-03-18T00:32:31;100876.09;;;30.01;48.70
63399;BME280;49533;-34.520;150.798;2023-03-18T00:34:59;100832.00;;;29.69;49.08
63399;BME280;49533;-34.520;150.798;2023-03-18T00:37:26;100830.97;;;29.79;48.98
63399;BME280;49533;-34.520;150.798;2023-03-18T00:40:02;100882.28;;;30.12;48.93
63399;BME280;49533;-34.520;150.798;2023-03-18T00:42:34;100881.69;;;30.21;48.80
63399;BME280;49533;-34.520;150.798;2023-03-18T00:45:07;100790.84;;;29.66;48.71
63399;BME280;49533;-34.520;150.798;2023-03-18T00:47:36;100839.41;;;29.96;48.94
63399;BME280;49533;-34.520;150.798;2023-03-18T00:50:05;100808.75;;;29.88;48.06
63399;BME280;49533;-34.520;150.798;2023-03-18T00:52:34;100856.19;;;30.36;48.23
63399;BME280;49533;-34.520;150.798;2023-03-18T00:55:01;100861.16;;;30.28;48.76
63399;BME280;49533;-34.520;150.798;2023-03-18T00:57:28;100818.81;;;30.22;48.00
63399;BME280;49533;-34.520;150.798;2023-03-18T00:59:56;100846.84;;;30.59;48.35
63399;BME280;49533;-34.520;150.798;2023-03-18T01:02:25;100815.97;;;30.42;48.40
63399;BME280;49533;-34.520;150.798;2023-03-18T01:04:52;100773.28;;;30.18;48.35
63399;BME280;49533;-34.520;150.798;2023-03-18T01:07:19;100810.44;;;30.55;48.47
63399;BME280;49533;-34.520;150.798;2023-03-18T01:09:46;100745.97;;;30.22;48.93
63399;BME280;49533;-34.520;150.798;2023-03-18T01:12:14;100760.34;;;30.24;49.41
63399;BME280;49533;-34.520;150.798;2023-03-18T01:14:41;100788.22;;;30.48;49.67
63399;BME280;49533;-34.520;150.798;2023-03-18T01:17:09;100808.69;;;30.77;49.75
63399;BME280;49533;-34.520;150.798;2023-03-18T01:19:37;100790.03;;;30.87;48.94
63399;BME280;49533;-34.520;150.798;2023-03-18T01:22:04;100757.28;;;30.51;49.73
63399;BME280;49533;-34.520;150.798;2023-03-18T01:24:32;100736.34;;;30.56;49.52
63399;BME280;49533;-34.520;150.798;2023-03-18T01:27:01;100782.25;;;30.79;49.49
63399;BME280;49533;-34.520;150.798;2023-03-18T01:29:28;100792.31;;;30.92;49.45
63399;BME280;49533;-34.520;150.798;2023-03-18T01:31:56;100787.00;;;30.82;50.13
63399;BME280;49533;-34.520;150.798;2023-03-18T01:34:23;100720.94;;;30.48;50.09
63399;BME280;49533;-34.520;150.798;2023-03-18T01:36:50;100749.72;;;30.81;49.77
63399;BME280;49533;-34.520;150.798;2023-03-18T01:39:17;100783.53;;;31.07;50.27
63399;BME280;49533;-34.520;150.798;2023-03-18T01:41:45;100749.97;;;30.70;51.00
63399;BME280;49533;-34.520;150.798;2023-03-18T01:44:14;100782.16;;;30.82;50.82
63399;BME280;49533;-34.520;150.798;2023-03-18T01:46:44;100763.31;;;30.83;50.66
63399;BME280;49533;-34.520;150.798;2023-03-18T01:49:16;100780.13;;;30.99;50.55
63399;BME280;49533;-34.520;150.798;2023-03-18T01:51:51;100721.25;;;30.66;50.43
63399;BME280;49533;-34.520;150.798;2023-03-18T01:54:22;100748.22;;;30.93;50.09
63399;BME280;49533;-34.520;150.798;2023-03-18T01:56:50;100767.63;;;30.71;51.21
63399;BME280;49533;-34.520;150.798;2023-03-18T01:59:24;100738.69;;;30.74;50.45
63399;BME280;49533;-34.520;150.798;2023-03-18T02:02:02;100737.69;;;30.97;50.37
63399;BME280;49533;-34.520;150.798;2023-03-18T02:04:33;100744.38;;;30.87;50.35
63399;BME280;49533;-34.520;150.798;2023-03-18T02:07:02;100691.28;;;30.63;50.29
63399;BME280;49533;-34.520;150.798;2023-03-18T02:09:29;100758.06;;;31.14;50.26
63399;BME280;49533;-34.520;150.798;2023-03-18T02:11:57;100671.59;;;30.50;50.30
63399;BME280;49533;-34.520;150.798;2023-03-18T02:14:26;100687.44;;;30.57;50.56
63399;BME280;49533;-34.520;150.798;2023-03-18T02:17:00;100740.44;;;30.84;50.76
63399;BME280;49533;-34.520;150.798;2023-03-18T02:19:49;100675.88;;;30.55;50.78
63399;BME280;49533;-34.520;150.798;2023-03-18T02:22:32;100694.00;;;30.67;50.48
63399;BME280;49533;-34.520;150.798;2023-03-18T02:25:24;100736.31;;;30.89;50.87
63399;BME280;49533;-34.520;150.798;2023-03-18T02:27:58;100704.47;;;30.79;50.58
63399;BME280;49533;-34.520;150.798;2023-03-18T02:30:32;100698.28;;;30.71;50.62
63399;BME280;49533;-34.520;150.798;2023-03-18T02:33:00;100714.41;;;30.84;51.32
63399;BME280;49533;-34.520;150.798;2023-03-18T02:35:28;100668.41;;;30.65;50.91
63399;BME280;49533;-34.520;150.798;2023-03-18T02:37:56;100637.50;;;30.52;50.56
63399;BME280;49533;-34.520;150.798;2023-03-18T02:40:28;100647.09;;;30.67;50.44
63399;BME280;49533;-34.520;150.798;2023-03-18T02:42:56;100632.94;;;30.58;50.58
63399;BME280;49533;-34.520;150.798;2023-03-18T02:45:34;100568.25;;;30.36;50.13
63399;BME280;49533;-34.520;150.798;2023-03-18T02:48:06;100680.47;;;31.07;50.23
63399;BME280;49533;-34.520;150.798;2023-03-18T02:50:37;100658.66;;;30.69;50.86
63399;BME280;49533;-34.520;150.798;2023-03-18T02:53:05;100623.00;;;30.70;50.04
63399;BME280;49533;-34.520;150.798;2023-03-18T02:55:32;100658.78;;;30.95;50.52
63399;BME280;49533;-34.520;150.798;2023-03-18T02:57:59;100641.13;;;30.82;50.51
63399;BME280;49533;-34.520;150.798;2023-03-18T03:00:26;100539.56;;;30.16;50.80
63399;BME280;49533;-34.520;150.798;2023-03-18T03:02:53;100676.97;;;31.03;51.51
63399;BME280;49533;-34.520;150.798;2023-03-18T03:05:20;100607.06;;;30.67;51.02
63399;BME280;49533;-34.520;150.798;2023-03-18T03:07:47;100594.13;;;30.57;50.97
63399;BME280;49533;-34.520;150.798;2023-03-18T03:10:14;100623.88;;;30.67;51.78
63399;BME280;49533;-34.520;150.798;2023-03-18T03:12:42;100617.31;;;30.73;51.34
63399;BME280;49533;-34.520;150.798;2023-03-18T03:15:09;100660.81;;;30.94;51.62
63399;BME280;49533;-34.520;150.798;2023-03-18T03:17:36;100599.50;;;30.51;51.84
63399;BME280;49533;-34.520;150.798;2023-03-18T03:20:05;100603.66;;;30.59;51.52
63399;BME280;49533;-34.520;150.798;2023-03-18T03:22:33;100571.19;;;30.32;52.20
63399;BME280;49533;-34.520;150.798;2023-03-18T03:25:00;100626.94;;;30.72;52.07
63399;BME280;49533;-34.520;150.798;2023-03-18T03:27:28;100638.44;;;30.91;51.48
63399;BME280;49533;-34.520;150.798;2023-03-18T03:29:55;100638.44;;;30.91;51.90
63399;BME280;49533;-34.520;150.798;2023-03-18T03:32:22;100591.91;;;30.64;51.85
63399;BME280;49533;-34.520;150.798;2023-03-18T03:34:49;100636.47;;;31.04;52.02
63399;BME280;49533;-34.520;150.798;2023-03-18T03:37:16;100595.72;;;30.70;52.26
63399;BME280;49533;-34.520;150.798;2023-03-18T03:39:43;100627.81;;;30.98;51.78
63399;BME280;49533;-34.520;150.798;2023-03-18T03:42:10;100570.22;;;30.52;52.06
63399;BME280;49533;-34.520;150.798;2023-03-18T03:44:37;100617.03;;;30.97;51.54
63399;BME280;49533;-34.520;150.798;2023-03-18T03:47:06;100619.53;;;31.08;51.81
63399;BME280;49533;-34.520;150.798;2023-03-18T03:49:33;100627.81;;;30.98;51.60
63399;BME280;49533;-34.520;150.798;2023-03-18T03:52:01;100590.19;;;30.83;52.29
63399;BME280;49533;-34.520;150.798;2023-03-18T03:54:28;100552.66;;;30.64;51.43
63399;BME280;49533;-34.520;150.798;2023-03-18T03:56:55;100620.88;;;31.03;51.97
63399;BME280;49533;-34.520;150.798;2023-03-18T03:59:22;100613.13;;;31.07;51.88
63399;BME280;49533;-34.520;150.798;2023-03-18T04:01:49;100595.19;;;31.05;50.83
63399;BME280;49533;-34.520;150.798;2023-03-18T04:04:17;100602.56;;;31.11;51.01
63399;BME280;49533;-34.520;150.798;2023-03-18T04:06:44;100545.25;;;30.70;50.76
63399;BME280;49533;-34.520;150.798;2023-03-18T04:09:11;100585.63;;;30.89;50.65
63399;BME280;49533;-34.520;150.798;2023-03-18T04:11:38;100539.53;;;30.61;51.21
63399;BME280;49533;-34.520;150.798;2023-03-18T04:14:05;100591.25;;;31.02;50.52
63399;BME280;49533;-34.520;150.798;2023-03-18T04:16:33;100578.44;;;31.01;50.54
63399;BME280;49533;-34.520;150.798;2023-03-18T04:19:00;100536.25;;;30.63;50.50
63399;BME280;49533;-34.520;150.798;2023-03-18T04:21:27;100521.22;;;30.57;51.49
63399;BME280;49533;-34.520;150.798;2023-03-18T04:23:56;100509.09;;;30.47;51.37
63399;BME280;49533;-34.520;150.798;2023-03-18T04:26:23;100538.97;;;30.66;51.48
63399;BME280;49533;-34.520;150.798;2023-03-18T04:28:50;100573.66;;;30.72;51.75
63399;BME280;49533;-34.520;150.798;2023-03-18T04:31:18;100570.63;;;30.80;51.65
63399;BME280;49533;-34.520;150.798;2023-03-18T04:33:45;100585.72;;;30.98;51.22
63399;BME280;49533;-34.520;150.798;2023-03-18T04:36:13;100590.03;;;30.74;52.63
63399;BME280;49533;-34.520;150.798;2023-03-18T04:38:40;100514.94;;;30.52;51.80
63399;BME280;49533;-34.520;150.798;2023-03-18T04:41:08;100434.34;;;29.85;53.05
63399;BME280;49533;-34.520;150.798;2023-03-18T04:43:35;100575.06;;;30.93;51.88
63399;BME280;49533;-34.520;150.798;2023-03-18T04:46:02;100535.81;;;30.64;52.29
63399;BME280;49533;-34.520;150.798;2023-03-18T04:48:29;100555.97;;;30.88;52.60
63399;BME280;49533;-34.520;150.798;2023-03-18T04:50:56;100511.50;;;30.61;52.02
63399;BME280;49533;-34.520;150.798;2023-03-18T04:53:24;100516.19;;;30.64;52.45
63399;BME280;49533;-34.520;150.798;2023-03-18T04:55:51;100542.19;;;30.52;53.27
63399;BME280;49533;-34.520;150.798;2023-03-18T04:58:18;100566.97;;;30.95;52.45
63399;BME280;49533;-34.520;150.798;2023-03-18T05:00:45;100518.31;;;30.60;52.26
63399;BME280;49533;-34.520;150.798;2023-03-18T05:03:12;100544.59;;;30.66;52.42
63399;BME280;49533;-34.520;150.798;2023-03-18T05:05:39;100540.50;;;30.54;53.30
63399;BME280;49533;-34.520;150.798;2023-03-18T05:08:06;100511.97;;;30.30;52.76
63399;BME280;49533;-34.520;150.798;2023-03-18T05:10:34;100557.38;;;30.67;52.93
63399;BME280;49533;-34.520;150.798;2023-03-18T05:13:01;100428.53;;;29.93;52.33
63399;BME280;49533;-34.520;150.798;2023-03-18T05:15:29;100508.97;;;30.21;52.91
63399;BME280;49533;-34.520;150.798;2023-03-18T05:17:56;100482.63;;;30.19;52.83
63399;BME280;49533;-34.520;150.798;2023-03-18T05:20:23;100412.44;;;29.51;52.48
63399;BME280;49533;-34.520;150.798;2023-03-18T05:22:50;100456.00;;;29.98;52.07
63399;BME280;49533;-34.520;150.798;2023-03-18T05:25:19;100561.41;;;30.37;52.84
63399;BME280;49533;-34.520;150.798;2023-03-18T05:27:47;100534.75;;;30.16;52.45
63399;BME280;49533;-34.520;150.798;2023-03-18T05:30:15;100491.09;;;30.02;51.89
63399;BME280;49533;-34.520;150.798;2023-03-18T05:32:42;100483.28;;;29.64;52.61
63399;BME280;49533;-34.520;150.798;2023-03-18T05:35:10;100553.16;;;30.17;53.04
63399;BME280;49533;-34.520;150.798;2023-03-18T05:37:37;100565.31;;;30.27;52.47
63399;BME280;49533;-34.520;150.798;2023-03-18T05:40:05;100542.63;;;30.21;52.89
63399;BME280;49533;-34.520;150.798;2023-03-18T05:42:36;100476.03;;;29.96;52.14
63399;BME280;49533;-34.520;150.798;2023-03-18T05:45:03;100571.34;;;30.54;52.33
63399;BME280;49533;-34.520;150.798;2023-03-18T05:47:31;100561.72;;;30.26;53.10
63399;BME280;49533;-34.520;150.798;2023-03-18T05:49:58;100569.28;;;30.42;52.50
63399;BME280;49533;-34.520;150.798;2023-03-18T05:52:25;100562.69;;;30.49;52.70
63399;BME280;49533;-34.520;150.798;2023-03-18T05:54:53;100514.00;;;30.30;51.70
63399;BME280;49533;-34.520;150.798;2023-03-18T05:57:21;100573.28;;;30.70;52.03
63399;BME280;49533;-34.520;150.798;2023-03-18T05:59:48;100566.47;;;30.71;51.88
63399;BME280;49533;-34.520;150.798;2023-03-18T06:02:15;100552.31;;;30.62;51.26
63399;BME280;49533;-34.520;150.798;2023-03-18T06:04:42;100572.75;;;30.75;51.85
63399;BME280;49533;-34.520;150.798;2023-03-18T06:07:09;100547.47;;;30.63;51.27
63399;BME280;49533;-34.520;150.798;2023-03-18T06:09:37;100506.84;;;30.42;51.12
63399;BME280;49533;-34.520;150.798;2023-03-18T06:12:04;100560.75;;;30.75;51.21
63399;BME280;49533;-34.520;150.798;2023-03-18T06:14:32;100584.38;;;30.90;50.99
63399;BME280;49533;-34.520;150.798;2023-03-18T06:16:59;100587.16;;;30.90;51.02
63399;BME280;49533;-34.520;150.798;2023-03-18T06:19:26;100578.97;;;30.96;51.49
63399;BME280;49533;-34.520;150.798;2023-03-18T06:21:55;100583.03;;;30.95;51.57
63399;BME280;49533;-34.520;150.798;2023-03-18T06:24:22;100574.94;;;30.84;51.55
63399;BME280;49533;-34.520;150.798;2023-03-18T06:26:50;100587.09;;;30.94;51.43
63399;BME280;49533;-34.520;150.798;2023-03-18T06:29:17;100526.59;;;30.51;51.33
63399;BME280;49533;-34.520;150.798;2023-03-18T06:31:45;100593.00;;;30.96;51.05
63399;BME280;49533;-34.520;150.798;2023-03-18T06:34:12;100583.38;;;30.97;51.07
63399;BME280;49533;-34.520;150.798;2023-03-18T06:36:39;100560.66;;;30.79;51.18
63399;BME280;49533;-34.520;150.798;2023-03-18T06:39:06;100585.28;;;31.00;51.03
63399;BME280;49533;-34.520;150.798;2023-03-18T06:41:33;100587.19;;;31.03;51.06
63399;BME280;49533;-34.520;150.798;2023-03-18T06:44:01;100558.47;;;30.86;51.18
63399;BME280;49533;-34.520;150.798;2023-03-18T06:46:29;100537.31;;;30.69;51.14
63399;BME280;49533;-34.520;150.798;2023-03-18T06:48:56;100549.53;;;30.75;51.25
63399;BME280;49533;-34.520;150.798;2023-03-18T06:51:23;100482.06;;;30.40;50.87
63399;BME280;49533;-34.520;150.798;2023-03-18T06:53:50;100542.13;;;30.68;51.71
63399;BME280;49533;-34.520;150.798;2023-03-18T06:56:18;100581.22;;;30.88;51.31
63399;BME280;49533;-34.520;150.798;2023-03-18T06:58:45;100590.00;;;31.03;51.26
63399;BME280;49533;-34.520;150.798;2023-03-18T07:01:12;100558.41;;;30.73;51.62
63399;BME280;49533;-34.520;150.798;2023-03-18T07:03:39;100563.00;;;30.80;51.90
63399;BME280;49533;-34.520;150.798;2023-03-18T07:06:07;100578.19;;;30.83;51.43
63399;BME280;49533;-34.520;150.798;2023-03-18T07:08:35;100585.44;;;30.80;51.79
63399;BME280;49533;-34.520;150.798;2023-03-18T07:11:03;100600.34;;;30.77;52.57
63399;BME280;49533;-34.520;150.798;2023-03-18T07:13:30;100605.00;;;30.84;52.33
63399;BME280;49533;-34.520;150.798;2023-03-18T07:15:57;100573.53;;;30.63;52.05
63399;BME280;49533;-34.520;150.798;2023-03-18T07:18:26;100606.16;;;30.70;52.86
63399;BME280;49533;-34.520;150.798;2023-03-18T07:20:53;100613.69;;;30.73;52.77
63399;BME280;49533;-34.520;150.798;2023-03-18T07:23:20;100584.16;;;30.55;52.16
63399;BME280;49533;-34.520;150.798;2023-03-18T07:25:47;100436.91;;;29.63;52.72
63399;BME280;49533;-34.520;150.798;2023-03-18T07:28:15;100603.94;;;30.77;52.17
63399;BME280;49533;-34.520;150.798;2023-03-18T07:30:42;100469.53;;;29.86;52.90
63399;BME280;49533;-34.520;150.798;2023-03-18T07:33:10;100537.28;;;30.27;52.62
63399;BME280;49533;-34.520;150.798;2023-03-18T07:35:37;100551.78;;;30.38;51.36
63399;BME280;49533;-34.520;150.798;2023-03-18T07:38:07;100623.56;;;30.77;52.55
63399;BME280;49533;-34.520;150.798;2023-03-18T07:40:35;100611.19;;;30.62;52.22
63399;BME280;49533;-34.520;150.798;2023-03-18T07:43:04;100629.19;;;30.77;52.17
63399;BME280;49533;-34.520;150.798;2023-03-18T07:45:32;100629.91;;;30.82;52.34
63399;BME280;49533;-34.520;150.798;2023-03-18T07:47:59;100627.47;;;30.84;51.74
63399;BME280;49533;-34.520;150.798;2023-03-18T07:50:27;100626.66;;;30.83;51.61
63399;BME280;49533;-34.520;150.798;2023-03-18T07:52:54;100636.31;;;30.82;52.25
63399;BME280;49533;-34.520;150.798;2023-03-18T07:55:21;100600.38;;;30.48;52.43
63399;BME280;49533;-34.520;150.798;2023-03-18T07:57:49;100569.00;;;30.24;52.63
63399;BME280;49533;-34.520;150.798;2023-03-18T08:00:17;100642.38;;;30.64;52.20
63399;BME280;49533;-34.520;150.798;2023-03-18T08:02:44;100643.63;;;30.63;52.15
63399;BME280;49533;-34.520;150.798;2023-03-18T08:05:11;100648.00;;;30.64;52.67
63399;BME280;49533;-34.520;150.798;2023-03-18T08:07:39;100636.78;;;30.64;52.67
63399;BME280;49533;-34.520;150.798;2023-03-18T08:10:06;100649.31;;;30.60;52.43
63399;BME280;49533;-34.520;150.798;2023-03-18T08:12:34;100609.19;;;30.17;52.61
63399;BME280;49533;-34.520;150.798;2023-03-18T08:15:01;100633.31;;;30.44;52.34
63399;BME280;49533;-34.520;150.798;2023-03-18T08:17:28;100604.09;;;30.28;52.27
63399;BME280;49533;-34.520;150.798;2023-03-18T08:19:55;100627.00;;;30.40;52.78
63399;BME280;49533;-34.520;150.798;2023-03-18T08:22:23;100663.69;;;30.62;52.64
63399;BME280;49533;-34.520;150.798;2023-03-18T08:24:51;100613.75;;;30.27;52.30
63399;BME280;49533;-34.520;150.798;2023-03-18T08:27:18;100629.69;;;30.30;52.77
63399;BME280;49533;-34.520;150.798;2023-03-18T08:29:46;100649.38;;;30.43;52.20
63399;BME280;49533;-34.520;150.798;2023-03-18T08:32:13;100650.94;;;30.44;52.62
63399;BME280;49533;-34.520;150.798;2023-03-18T08:34:40;100684.63;;;30.57;52.13
63399;BME280;49533;-34.520;150.798;2023-03-18T08:37:08;100677.47;;;30.56;52.70
63399;BME280;49533;-34.520;150.798;2023-03-18T08:39:35;100697.97;;;30.53;52.59
63399;BME280;49533;-34.520;150.798;2023-03-18T08:42:03;100637.84;;;30.25;52.21
63399;BME280;49533;-34.520;150.798;2023-03-18T08:44:30;100653.06;;;30.24;52.83
63399;BME280;49533;-34.520;150.798;2023-03-18T08:46:58;100683.25;;;30.49;52.34
63399;BME280;49533;-34.520;150.798;2023-03-18T08:49:25;100574.63;;;29.75;52.57
63399;BME280;49533;-34.520;150.798;2023-03-18T08:51:52;100703.66;;;30.49;52.45
63399;BME280;49533;-34.520;150.798;2023-03-18T08:54:20;100647.28;;;30.15;52.25
63399;BME280;49533;-34.520;150.798;2023-03-18T08:56:47;100642.28;;;30.06;52.28
63399;BME280;49533;-34.520;150.798;2023-03-18T08:59:15;100711.38;;;30.45;52.60
63399;BME280;49533;-34.520;150.798;2023-03-18T09:01:43;100713.31;;;30.32;53.04
63399;BME280;49533;-34.520;150.798;2023-03-18T09:04:10;100469.84;;;28.74;52.55
63399;BME280;49533;-34.520;150.798;2023-03-18T09:06:37;100722.00;;;30.38;52.59
63399;BME280;49533;-34.520;150.798;2023-03-18T09:09:04;100647.03;;;29.93;52.89
63399;BME280;49533;-34.520;150.798;2023-03-18T09:11:31;100694.38;;;30.20;52.90
63399;BME280;49533;-34.520;150.798;2023-03-18T09:13:59;100658.03;;;29.83;52.63
63399;BME280;49533;-34.520;150.798;2023-03-18T09:16:26;100724.19;;;30.30;52.79
63399;BME280;49533;-34.520;150.798;2023-03-18T09:18:53;100729.69;;;30.33;52.49
63399;BME280;49533;-34.520;150.798;2023-03-18T09:21:20;100731.47;;;30.27;53.04
63399;BME280;49533;-34.520;150.798;2023-03-18T09:23:48;100735.47;;;30.26;52.60
63399;BME280;49533;-34.520;150.798;2023-03-18T09:26:16;100747.13;;;30.25;52.69
63399;BME280;49533;-34.520;150.798;2023-03-18T09:28:43;100685.97;;;29.87;52.61
63399;BME280;49533;-34.520;150.798;2023-03-18T09:31:10;100757.53;;;30.24;52.47
63399;BME280;49533;-34.520;150.798;2023-03-18T09:33:38;100773.19;;;30.22;52.83
63399;BME280;49533;-34.520;150.798;2023-03-18T09:36:07;100694.97;;;29.78;52.52
63399;BME280;49533;-34.520;150.798;2023-03-18T09:38:35;100764.78;;;30.22;52.95
63399;BME280;49533;-34.520;150.798;2023-03-18T09:41:30;100766.09;;;30.17;53.00
63399;BME280;49533;-34.520;150.798;2023-03-18T09:44:20;100773.69;;;30.17;52.77
63399;BME280;49533;-34.520;150.798;2023-03-18T09:47:12;100775.81;;;30.12;52.89
63399;BME280;49533;-34.520;150.798;2023-03-18T09:50:00;100743.56;;;29.88;52.85
63399;BME280;49533;-34.520;150.798;2023-03-18T09:52:43;100775.81;;;30.12;52.52
63399;BME280;49533;-34.520;150.798;2023-03-18T09:55:23;100764.16;;;29.98;53.09
63399;BME280;49533;-34.520;150.798;2023-03-18T09:57:56;100795.94;;;30.07;53.00
63399;BME280;49533;-34.520;150.798;2023-03-18T10:00:35;100747.84;;;29.76;52.75
63399;BME280;49533;-34.520;150.798;2023-03-18T10:03:10;100774.44;;;29.84;52.76
63399;BME280;49533;-34.520;150.798;2023-03-18T10:05:48;100803.63;;;30.03;52.88
63399;BME280;49533;-34.520;150.798;2023-03-18T10:08:29;100762.25;;;29.75;52.71
63399;BME280;49533;-34.520;150.798;2023-03-18T10:11:04;100762.25;;;29.75;53.06
63399;BME280;49533;-34.520;150.798;2023-03-18T10:13:40;100797.91;;;29.90;52.75
63399;BME280;49533;-34.520;150.798;2023-03-18T10:16:16;100794.75;;;29.88;52.89
63399;BME280;49533;-34.520;150.798;2023-03-18T10:18:46;100765.25;;;29.64;53.27
63399;BME280;49533;-34.520;150.798;2023-03-18T10:21:24;100806.75;;;29.89;53.33
63399;BME280;49533;-34.520;150.798;2023-03-18T10:24:12;100800.53;;;29.81;53.22
63399;BME280;49533;-34.520;150.798;2023-03-18T10:26:51;100822.69;;;29.92;53.32
63399;BME280;49533;-34.520;150.798;2023-03-18T10:29:35;100810.28;;;29.73;53.50
63399;BME280;49533;-34.520;150.798;2023-03-18T10:32:19;100759.91;;;29.33;53.56
63399;BME280;49533;-34.520;150.798;2023-03-18T10:35:17;100833.19;;;29.88;53.29
63399;BME280;49533;-34.520;150.798;2023-03-18T10:37:55;100837.56;;;29.89;53.03
63399;BME280;49533;-34.520;150.798;2023-03-18T10:40:23;100828.03;;;29.86;52.97
63399;BME280;49533;-34.520;150.798;2023-03-18T10:42:52;100823.72;;;29.82;53.12
63399;BME280;49533;-34.520;150.798;2023-03-18T10:45:24;100831.66;;;29.83;53.11
63399;BME280;49533;-34.520;150.798;2023-03-18T10:48:03;100824.59;;;29.79;53.38
63399;BME280;49533;-34.520;150.798;2023-03-18T10:50:37;100827.03;;;29.77;53.16
63399;BME280;49533;-34.520;150.798;2023-03-18T10:53:18;100826.66;;;29.75;53.64
63399;BME280;49533;-34.520;150.798;2023-03-18T10:56:00;100830.34;;;29.72;53.53
63399;BME280;49533;-34.520;150.798;2023-03-18T10:58:29;100829.97;;;29.69;53.48
63399;BME280;49533;-34.520;150.798;2023-03-18T11:00:57;100825.16;;;29.70;53.63
63399;BME280;49533;-34.520;150.798;2023-03-18T11:03:37;100791.19;;;29.48;53.82
63399;BME280;49533;-34.520;150.798;2023-03-18T11:06:15;100820.41;;;29.67;53.82
63399;BME280;49533;-34.520;150.798;2023-03-18T11:08:47;100813.66;;;29.64;53.46
63399;BME280;49533;-34.520;150.798;2023-03-18T11:11:28;100789.41;;;29.38;53.99
63399;BME280;49533;-34.520;150.798;2023-03-18T11:13:59;100822.47;;;29.63;54.03
63399;BME280;49533;-34.520;150.798;2023-03-18T11:16:38;100806.63;;;29.56;53.76
63399;BME280;49533;-34.520;150.798;2023-03-18T11:19:21;100776.31;;;29.31;53.65
63399;BME280;49533;-34.520;150.798;2023-03-18T11:24:45;100814.56;;;29.58;53.61
63399;BME280;49533;-34.520;150.798;2023-03-18T11:27:28;100792.03;;;29.45;53.37
63399;BME280;49533;-34.520;150.798;2023-03-18T11:30:08;100814.56;;;29.58;53.65
63399;BME280;49533;-34.520;150.798;2023-03-18T11:32:36;100811.94;;;29.51;53.61
63399;BME280;49533;-34.520;150.798;2023-03-18T11:35:06;100786.16;;;29.39;53.38
63399;BME280;49533;-34.520;150.798;2023-03-18T11:37:36;100800.09;;;29.43;53.31
63399;BME280;49533;-34.520;150.798;2023-03-18T11:40:17;100804.09;;;29.42;53.97
63399;BME280;49533;-34.520;150.798;2023-03-18T11:42:46;100799.88;;;29.34;53.74
63399;BME280;49533;-34.520;150.798;2023-03-18T11:45:29;100754.97;;;28.97;53.40
63399;BME280;49533;-34.520;150.798;2023-03-18T11:47:58;100767.56;;;29.09;53.71
63399;BME280;49533;-34.520;150.798;2023-03-18T11:50:35;100756.50;;;29.02;53.60
63399;BME280;49533;-34.520;150.798;2023-03-18T11:53:17;100770.00;;;29.07;53.99
63399;BME280;49533;-34.520;150.798;2023-03-18T11:55:54;100709.16;;;28.68;53.87
63399;BME280;49533;-34.520;150.798;2023-03-18T11:58:40;100799.09;;;29.33;53.96
63399;BME280;49533;-34.520;150.798;2023-03-18T12:01:29;100753.50;;;29.13;53.79
63399;BME280;49533;-34.520;150.798;2023-03-18T12:04:18;100756.91;;;29.00;53.77
63399;BME280;49533;-34.520;150.798;2023-03-18T12:10:00;100798.28;;;29.13;54.48
63399;BME280;49533;-34.520;150.798;2023-03-18T12:12:55;100754.03;;;28.84;54.22
63399;BME280;49533;-34.520;150.798;2023-03-18T12:16:44;100757.47;;;28.92;54.00
63399;BME280;49533;-34.520;150.798;2023-03-18T12:18:49;100719.66;;;28.64;54.19
63399;BME280;49533;-34.520;150.798;2023-03-18T12:21:40;100797.53;;;29.09;54.37
63399;BME280;49533;-34.520;150.798;2023-03-18T12:24:30;100797.53;;;29.09;54.28
63399;BME280;49533;-34.520;150.798;2023-03-18T12:27:18;100723.22;;;28.64;54.07
63399;BME280;49533;-34.520;150.798;2023-03-18T12:32:57;100784.72;;;28.88;54.68
63399;BME280;49533;-34.520;150.798;2023-03-18T12:35:39;100783.06;;;28.90;54.49
63399;BME280;49533;-34.520;150.798;2023-03-18T12:38:37;100787.25;;;28.78;54.72
63399;BME280;49533;-34.520;150.798;2023-03-18T12:41:20;100746.84;;;28.59;54.61
63399;BME280;49533;-34.520;150.798;2023-03-18T12:46:51;100781.38;;;28.73;54.67
63399;BME280;49533;-34.520;150.798;2023-03-18T12:50:11;100776.88;;;28.79;54.33